Time;durP1;ratioP1;P1;durP2;ratioP2;P2;SDS_P1;SDS_P2;PMS_P1;PMS_P2;Temp;Humidity;BMP_temperature;BMP_pressure;BME280_temperature;BME280_humidity;BME280_pressure;Samples;Min_cycle;Max_cycle;Signal;HPM_P1;HPM_P2
2023/12/18 00:00:36;;;;;;;34.80;24.20;;;7.90;90.40;;;;;;4979292;28;20253;-90
2023/12/18 00:03:02;;;;;;;28.93;15.10;;;7.90;90.30;;;;;;4979039;28;20621;-90
2023/12/18 00:05:27;;;;;;;26.30;14.60;;;8.00;90.30;;;;;;4996763;28;20235;-90
2023/12/18 00:07:53;;;;;;;36.53;22.07;;;8.00;90.20;;;;;;4978849;28;20214;-89
2023/12/18 00:10:18;;;;;;;31.13;21.43;;;8.00;90.40;;;;;;4978827;28;20236;-90
2023/12/18 00:12:44;;;;;;;38.43;22.17;;;7.90;90.50;;;;;;4978614;28;20228;-90
2023/12/18 00:15:09;;;;;;;35.87;15.43;;;7.90;90.60;;;;;;4978657;28;20189;-90
2023/12/18 00:17:35;;;;;;;29.67;15.40;;;7.90;90.60;;;;;;4978560;28;20533;-90
2023/12/18 00:20:01;;;;;;;34.60;16.40;;;7.90;90.50;;;;;;4978751;28;20700;-90
2023/12/18 00:22:27;;;;;;;38.27;15.70;;;7.90;90.40;;;;;;4978597;28;20563;-90
2023/12/18 00:24:52;;;;;;;31.13;16.07;;;7.90;90.50;;;;;;4978564;28;20561;-90
2023/12/18 00:27:18;;;;;;;32.17;16.83;;;7.90;90.60;;;;;;4978398;28;20672;-91
2023/12/18 00:29:43;;;;;;;36.57;17.73;;;7.90;90.40;;;;;;4978672;28;20198;-90
2023/12/18 00:32:09;;;;;;;24.83;15.20;;;7.90;90.50;;;;;;4978519;28;20588;-89
2023/12/18 00:34:34;;;;;;;26.53;14.57;;;7.90;90.60;;;;;;4978175;28;20185;-89
2023/12/18 00:37:00;;;;;;;27.17;14.23;;;8.00;90.60;;;;;;4994207;28;20201;-89
2023/12/18 00:39:25;;;;;;;27.77;13.90;;;7.90;90.50;;;;;;4977895;28;20221;-90
2023/12/18 00:41:53;;;;;;;28.93;15.47;;;7.90;90.40;;;;;;4977994;28;20181;-90
2023/12/18 00:44:19;;;;;;;31.70;16.63;;;8.00;90.40;;;;;;4980223;28;20204;-92
2023/12/18 00:46:44;;;;;;;30.43;15.97;;;8.00;90.40;;;;;;4978488;28;20178;-89
2023/12/18 00:49:10;;;;;;;38.33;17.13;;;7.90;90.60;;;;;;4978069;28;20288;-90
2023/12/18 00:51:36;;;;;;;31.70;17.00;;;7.90;90.60;;;;;;4978423;28;20184;-90
2023/12/18 00:54:01;;;;;;;30.80;15.53;;;7.90;90.70;;;;;;4995879;28;20666;-90
2023/12/18 00:56:27;;;;;;;23.77;13.47;;;7.90;90.60;;;;;;4978098;28;20185;-91
2023/12/18 00:58:52;;;;;;;48.83;23.40;;;7.90;90.60;;;;;;4977622;28;20265;-91
2023/12/18 01:01:21;;;;;;;39.90;23.97;;;7.90;90.50;;;;;;4977577;28;20170;-90
2023/12/18 01:03:46;;;;;;;36.70;21.60;;;7.90;90.60;;;;;;4977297;28;20662;-91
2023/12/18 01:06:12;;;;;;;32.93;22.63;;;7.90;90.70;;;;;;4977447;28;20180;-91
2023/12/18 01:08:37;;;;;;;36.07;22.40;;;7.80;90.70;;;;;;4978706;28;20269;-90
2023/12/18 01:11:03;;;;;;;44.37;23.80;;;7.90;90.70;;;;;;4977618;28;20188;-90
2023/12/18 01:13:29;;;;;;;34.30;20.77;;;7.90;90.70;;;;;;4978227;28;20253;-90
2023/12/18 01:15:56;;;;;;;32.03;22.57;;;7.90;90.70;;;;;;4977426;28;20181;-90
2023/12/18 01:18:22;;;;;;;37.73;23.70;;;7.90;90.60;;;;;;4977250;28;20266;-90
2023/12/18 01:20:47;;;;;;;34.77;22.67;;;7.90;90.70;;;;;;4977165;28;20282;-90
2023/12/18 01:23:13;;;;;;;37.13;20.57;;;7.90;90.70;;;;;;4977207;28;20182;-90
2023/12/18 01:25:39;;;;;;;30.53;20.70;;;7.90;90.80;;;;;;4977101;28;20182;-90
2023/12/18 01:28:05;;;;;;;35.10;21.90;;;7.90;90.70;;;;;;4977011;28;20182;-90
2023/12/18 01:30:30;;;;;;;42.57;23.23;;;7.90;90.60;;;;;;4976944;28;20284;-91
2023/12/18 01:32:56;;;;;;;34.70;23.03;;;7.90;90.50;;;;;;4977019;28;20216;-90
2023/12/18 01:35:21;;;;;;;40.37;24.37;;;7.90;90.60;;;;;;4977206;28;20559;-90
2023/12/18 01:37:47;;;;;;;36.63;21.57;;;7.80;90.60;;;;;;4977097;28;20197;-90
2023/12/18 01:40:13;;;;;;;32.17;17.20;;;7.90;90.60;;;;;;4976941;28;20249;-90
2023/12/18 01:42:44;;;;;;;37.80;17.33;;;7.80;90.60;;;;;;4976790;28;20216;-90
2023/12/18 01:45:10;;;;;;;43.40;25.77;;;7.90;90.70;;;;;;4976991;28;20185;-90
2023/12/18 01:47:36;;;;;;;47.40;24.20;;;7.80;90.70;;;;;;4977253;28;20638;-90
2023/12/18 01:50:03;;;;;;;33.80;22.93;;;7.80;90.90;;;;;;4976584;28;20213;-90
2023/12/18 01:52:29;;;;;;;34.60;18.50;;;7.80;90.90;;;;;;4977059;28;20213;-90
2023/12/18 01:54:56;;;;;;;36.80;18.33;;;7.80;90.80;;;;;;4976709;28;20181;-89
2023/12/18 01:57:23;;;;;;;33.87;24.10;;;7.90;90.70;;;;;;4976722;28;20265;-90
2023/12/18 01:59:50;;;;;;;38.00;23.10;;;7.80;90.70;;;;;;4976968;28;20201;-91
2023/12/18 02:02:16;;;;;;;34.50;22.77;;;7.90;90.80;;;;;;4976624;28;20212;-90
2023/12/18 02:04:42;;;;;;;30.97;17.27;;;7.90;90.90;;;;;;4994403;28;20233;-90
2023/12/18 02:07:09;;;;;;;26.30;15.43;;;7.80;91.00;;;;;;4976905;28;20178;-90
2023/12/18 02:09:35;;;;;;;34.63;21.57;;;7.80;91.00;;;;;;4976441;28;20330;-91
2023/12/18 02:12:01;;;;;;;39.57;24.10;;;7.90;91.00;;;;;;4976397;28;20225;-90
2023/12/18 02:14:26;;;;;;;38.40;23.07;;;7.80;91.00;;;;;;4976516;28;20261;-90
2023/12/18 02:16:52;;;;;;;35.17;17.57;;;7.80;91.10;;;;;;4975690;28;20642;-90
2023/12/18 02:19:27;;;;;;;37.40;18.07;;;7.80;91.20;;;;;;4992561;28;20203;-90
2023/12/18 02:21:56;;;;;;;23.10;13.67;;;7.90;91.20;;;;;;4976757;28;20237;-90
2023/12/18 02:24:22;;;;;;;24.97;14.83;;;7.80;91.20;;;;;;4976404;28;20182;-90
2023/12/18 02:26:48;;;;;;;37.57;17.10;;;7.80;91.30;;;;;;4976414;28;20185;-90
2023/12/18 02:29:14;;;;;;;31.53;17.20;;;7.80;91.30;;;;;;4976391;28;20289;-90
2023/12/18 02:31:40;;;;;;;32.83;18.27;;;7.80;91.40;;;;;;4976816;28;20235;-90
2023/12/18 02:34:06;;;;;;;31.23;16.83;;;7.80;91.30;;;;;;4976597;28;20217;-90
2023/12/18 02:36:32;;;;;;;29.57;16.60;;;7.80;91.30;;;;;;4976156;28;20174;-90
2023/12/18 02:38:57;;;;;;;41.77;17.97;;;7.80;91.50;;;;;;4976123;28;20206;-90
2023/12/18 02:41:23;;;;;;;28.63;15.27;;;7.80;91.70;;;;;;4976256;28;20186;-90
2023/12/18 02:43:48;;;;;;;36.83;16.87;;;7.80;91.50;;;;;;4976200;28;20189;-90
2023/12/18 02:46:14;;;;;;;31.90;17.37;;;7.80;91.40;;;;;;4976561;28;20702;-89
2023/12/18 02:48:40;;;;;;;36.83;17.00;;;7.80;91.30;;;;;;4993446;28;20182;-90
2023/12/18 02:51:05;;;;;;;40.90;16.43;;;7.80;91.40;;;;;;4976103;28;20273;-93
2023/12/18 02:53:31;;;;;;;34.33;16.67;;;7.80;91.40;;;;;;4976279;28;20210;-91
2023/12/18 02:55:57;;;;;;;32.30;15.73;;;7.80;91.50;;;;;;4976159;28;20178;-91
2023/12/18 02:58:23;;;;;;;33.07;19.00;;;7.80;91.40;;;;;;4992530;28;20170;-91
2023/12/18 03:00:49;;;;;;;37.77;21.70;;;7.90;91.30;;;;;;4975936;28;20292;-91
2023/12/18 03:03:14;;;;;;;43.07;24.07;;;7.90;91.20;;;;;;4976169;28;20210;-91
2023/12/18 03:05:40;;;;;;;35.50;23.23;;;7.90;91.20;;;;;;4976009;28;20183;-91
2023/12/18 03:08:06;;;;;;;35.77;22.57;;;7.90;91.20;;;;;;4976304;28;20186;-91
2023/12/18 03:10:32;;;;;;;27.03;22.23;;;7.90;91.20;;;;;;4993601;28;20341;-91
2023/12/18 03:12:57;;;;;;;39.23;23.40;;;7.90;91.20;;;;;;4993301;28;20198;-91
2023/12/18 03:15:23;;;;;;;37.53;23.73;;;7.90;91.20;;;;;;4976099;28;20178;-92
2023/12/18 03:17:48;;;;;;;37.07;21.90;;;7.90;91.20;;;;;;4992705;28;20194;-91
2023/12/18 03:20:14;;;;;;;39.20;22.57;;;7.90;91.20;;;;;;4976130;28;20198;-90
2023/12/18 03:22:40;;;;;;;40.53;23.13;;;7.90;91.20;;;;;;4976303;28;20182;-92
2023/12/18 03:25:05;;;;;;;37.17;22.37;;;7.90;91.30;;;;;;4976106;28;20234;-91
2023/12/18 03:27:31;;;;;;;37.33;21.70;;;7.90;91.40;;;;;;4977367;28;20186;-91
2023/12/18 03:29:57;;;;;;;38.13;22.73;;;7.90;91.50;;;;;;4979388;28;20281;-92
2023/12/18 03:32:22;;;;;;;36.97;19.13;;;7.90;91.40;;;;;;4979526;28;20202;-91
2023/12/18 03:34:48;;;;;;;37.97;24.13;;;7.90;91.50;;;;;;4979840;28;20181;-91
2023/12/18 03:37:13;;;;;;;34.07;21.30;;;7.90;91.40;;;;;;4979690;28;20327;-91
2023/12/18 03:39:39;;;;;;;30.13;20.10;;;7.90;91.30;;;;;;4979305;28;20708;-92
2023/12/18 03:42:05;;;;;;;36.93;16.83;;;7.90;91.40;;;;;;4979997;28;20556;-91
2023/12/18 03:44:30;;;;;;;36.77;15.87;;;7.90;91.30;;;;;;4979060;28;20174;-91
2023/12/18 03:46:57;;;;;;;38.67;21.70;;;7.80;91.50;;;;;;4979221;28;20190;-91
2023/12/18 03:49:23;;;;;;;36.93;21.87;;;7.90;91.60;;;;;;4979034;28;20198;-91
2023/12/18 03:51:49;;;;;;;35.13;21.70;;;7.90;91.50;;;;;;4978881;28;20181;-91
2023/12/18 03:54:15;;;;;;;44.83;16.03;;;7.90;91.50;;;;;;4996488;28;20206;-92
2023/12/18 03:56:41;;;;;;;32.03;16.40;;;7.90;91.40;;;;;;4979252;28;20253;-91
2023/12/18 03:59:06;;;;;;;29.60;19.87;;;7.90;91.50;;;;;;4978797;28;20557;-91
2023/12/18 04:01:36;;;;;;;41.33;20.93;;;7.90;91.70;;;;;;4979280;28;20178;-91
2023/12/18 04:04:02;;;;;;;35.50;22.00;;;7.90;91.50;;;;;;4979037;28;20182;-91
2023/12/18 04:06:28;;;;;;;37.07;16.97;;;7.90;91.40;;;;;;4979028;28;20236;-91
2023/12/18 04:08:54;;;;;;;33.37;17.67;;;7.90;91.60;;;;;;4978655;28;20693;-91
2023/12/18 04:11:21;;;;;;;29.50;16.53;;;7.90;91.60;;;;;;4978605;28;20202;-91
2023/12/18 04:13:50;;;;;;;31.57;16.83;;;7.90;91.60;;;;;;4979183;28;20217;-91
2023/12/18 04:16:15;;;;;;;29.43;15.67;;;7.90;91.70;;;;;;4978413;28;20189;-91
2023/12/18 04:18:41;;;;;;;28.70;17.27;;;7.80;91.70;;;;;;4978440;28;20175;-91
2023/12/18 04:21:07;;;;;;;26.97;15.63;;;7.90;91.70;;;;;;4978246;28;20185;-91
2023/12/18 04:23:32;;;;;;;28.27;15.87;;;7.90;91.70;;;;;;4978558;28;20551;-91
2023/12/18 04:25:58;;;;;;;32.60;16.90;;;7.90;91.70;;;;;;4978949;28;20174;-91
2023/12/18 04:28:23;;;;;;;30.13;16.43;;;7.90;91.70;;;;;;4978330;28;20657;-92
2023/12/18 04:30:49;;;;;;;37.40;17.33;;;7.90;91.70;;;;;;4978220;28;20198;-91
2023/12/18 04:33:14;;;;;;;32.00;17.47;;;7.90;91.80;;;;;;4978223;28;20718;-91
2023/12/18 04:35:41;;;;;;;27.43;16.90;;;7.90;91.80;;;;;;4978165;28;20185;-91
2023/12/18 04:38:06;;;;;;;45.50;18.97;;;7.80;91.90;;;;;;4977789;28;20257;-91
2023/12/18 04:40:32;;;;;;;27.93;14.43;;;7.90;91.80;;;;;;4977568;28;20202;-91
2023/12/18 04:42:57;;;;;;;26.63;16.93;;;7.90;91.70;;;;;;4977998;28;20213;-91
2023/12/18 04:45:23;;;;;;;39.97;18.50;;;7.90;91.80;;;;;;4977930;28;20185;-91
2023/12/18 04:47:48;;;;;;;31.90;15.57;;;7.90;91.90;;;;;;4977994;28;20189;-91
2023/12/18 04:50:14;;;;;;;34.00;22.17;;;7.80;91.90;;;;;;4977943;28;20248;-91
2023/12/18 04:52:40;;;;;;;28.40;19.47;;;7.90;91.90;;;;;;4978362;28;20321;-92
2023/12/18 04:55:06;;;;;;;43.67;22.40;;;7.90;91.90;;;;;;4977775;28;20245;-92
2023/12/18 04:57:32;;;;;;;40.43;22.17;;;7.90;91.90;;;;;;4977712;28;20205;-91
2023/12/18 04:59:58;;;;;;;32.37;23.00;;;7.90;92.00;;;;;;4977767;28;20197;-91
2023/12/18 05:02:23;;;;;;;41.17;24.20;;;7.80;92.10;;;;;;4978253;28;20182;-91
2023/12/18 05:04:49;;;;;;;34.30;22.37;;;7.80;92.10;;;;;;4977695;28;20178;-91
2023/12/18 05:07:15;;;;;;;45.37;25.33;;;7.80;92.10;;;;;;4977597;28;20188;-91
2023/12/18 05:09:40;;;;;;;35.63;22.57;;;7.80;92.10;;;;;;4977404;28;20198;-92
2023/12/18 05:12:06;;;;;;;39.07;24.30;;;7.80;92.10;;;;;;4977304;28;20608;-91
2023/12/18 05:14:32;;;;;;;38.60;23.97;;;7.80;92.20;;;;;;4977674;28;20314;-91
2023/12/18 05:16:58;;;;;;;40.73;23.47;;;7.80;92.20;;;;;;4977495;28;20181;-91
2023/12/18 05:19:23;;;;;;;28.53;20.03;;;7.80;92.20;;;;;;4977255;28;20194;-91
2023/12/18 05:21:49;;;;;;;35.20;22.30;;;7.80;92.20;;;;;;4977382;28;20170;-91
2023/12/18 05:24:15;;;;;;;36.50;23.93;;;7.80;92.20;;;;;;4977336;28;20181;-91
2023/12/18 05:26:40;;;;;;;47.33;24.73;;;7.80;92.30;;;;;;4977143;28;20272;-91
2023/12/18 05:29:06;;;;;;;39.83;27.17;;;7.80;92.40;;;;;;4977545;28;20201;-92
2023/12/18 05:31:31;;;;;;;32.27;19.87;;;7.80;92.40;;;;;;4977778;28;20182;-91
2023/12/18 05:33:59;;;;;;;36.53;21.53;;;7.80;92.40;;;;;;4977558;28;20212;-93
2023/12/18 05:36:25;;;;;;;37.80;21.77;;;7.80;92.40;;;;;;4978730;28;20178;-91
2023/12/18 05:38:51;;;;;;;38.07;23.63;;;7.80;92.50;;;;;;4977193;28;20712;-91
2023/12/18 05:41:16;;;;;;;43.13;26.83;;;7.70;92.50;;;;;;4976993;28;20273;-91
2023/12/18 05:43:42;;;;;;;29.97;17.97;;;7.70;92.60;;;;;;4976902;28;20197;-90
2023/12/18 05:46:12;;;;;;;42.73;20.87;;;7.70;92.60;;;;;;4976924;28;20199;-91
2023/12/18 05:48:38;;;;;;;37.90;22.47;;;7.70;92.60;;;;;;4976790;28;20185;-91
2023/12/18 05:51:04;;;;;;;40.03;25.50;;;7.70;92.60;;;;;;4976808;28;20169;-91
2023/12/18 05:53:29;;;;;;;36.10;21.57;;;7.70;92.60;;;;;;4976723;28;20685;-91
2023/12/18 05:55:55;;;;;;;40.77;20.80;;;7.80;92.70;;;;;;4976780;28;20182;-91
2023/12/18 05:58:20;;;;;;;40.00;21.83;;;7.70;92.70;;;;;;4976633;28;20257;-91
2023/12/18 06:00:46;;;;;;;34.90;22.63;;;7.80;92.60;;;;;;4976693;28;20263;-91
2023/12/18 06:03:11;;;;;;;34.23;24.00;;;7.70;92.60;;;;;;4977647;28;20182;-91
2023/12/18 06:05:37;;;;;;;44.33;25.13;;;7.70;92.70;;;;;;4978338;28;20231;-91
2023/12/18 06:08:03;;;;;;;27.13;18.17;;;7.80;92.70;;;;;;4977897;28;20182;-91
2023/12/18 06:10:29;;;;;;;36.80;19.27;;;7.80;92.70;;;;;;4976937;28;20284;-91
2023/12/18 06:12:54;;;;;;;43.53;19.20;;;7.80;92.70;;;;;;4976980;28;20264;-91
2023/12/18 06:15:20;;;;;;;42.00;20.30;;;7.80;92.70;;;;;;4976667;28;20185;-91
2023/12/18 06:17:45;;;;;;;38.57;20.33;;;7.80;92.70;;;;;;4976400;28;20182;-91
2023/12/18 06:20:11;;;;;;;36.33;18.80;;;7.80;92.70;;;;;;4976736;28;20666;-91
2023/12/18 06:22:36;;;;;;;37.63;21.50;;;7.80;92.70;;;;;;4976303;28;20189;-91
2023/12/18 06:25:03;;;;;;;39.40;21.00;;;7.80;92.60;;;;;;4976427;28;20559;-91
2023/12/18 06:27:29;;;;;;;46.73;21.80;;;7.80;92.70;;;;;;4976202;28;20178;-91
2023/12/18 06:29:54;;;;;;;49.87;21.30;;;7.80;92.60;;;;;;4977440;28;20607;-91
2023/12/18 06:32:20;;;;;;;38.37;22.47;;;7.80;92.60;;;;;;4976273;28;20637;-91
2023/12/18 06:34:45;;;;;;;35.80;20.40;;;7.80;92.60;;;;;;4977288;28;20181;-91
2023/12/18 06:37:11;;;;;;;44.87;21.47;;;7.80;92.60;;;;;;4976286;28;20186;-91
2023/12/18 06:39:36;;;;;;;42.63;22.07;;;7.80;92.60;;;;;;4976580;28;20193;-91
2023/12/18 06:42:02;;;;;;;38.10;20.50;;;7.80;92.60;;;;;;4992619;28;20173;-91
2023/12/18 06:44:28;;;;;;;40.30;21.00;;;7.80;92.60;;;;;;4976269;28;20576;-91
2023/12/18 06:46:53;;;;;;;39.60;22.00;;;7.80;92.50;;;;;;4976150;28;20174;-91
2023/12/18 06:49:19;;;;;;;45.73;21.10;;;7.80;92.50;;;;;;4976255;28;20204;-91
2023/12/18 06:51:44;;;;;;;37.47;23.63;;;7.80;92.50;;;;;;4976619;28;20174;-91
2023/12/18 06:54:10;;;;;;;45.80;26.40;;;7.80;92.60;;;;;;4976164;28;20210;-91
2023/12/18 06:56:37;;;;;;;43.40;25.43;;;7.80;92.60;;;;;;4976092;28;20186;-91
2023/12/18 06:59:03;;;;;;;48.13;27.07;;;7.80;92.60;;;;;;4976119;28;20194;-91
2023/12/18 07:01:28;;;;;;;54.13;28.00;;;7.80;92.70;;;;;;4976070;28;20186;-91
2023/12/18 07:03:54;;;;;;;44.50;24.33;;;7.80;92.70;;;;;;4980017;28;20182;-91
2023/12/18 07:06:20;;;;;;;49.87;25.70;;;7.80;92.80;;;;;;4979810;28;20182;-91
2023/12/18 07:08:47;;;;;;;49.07;27.57;;;7.80;92.80;;;;;;4980110;28;20182;-92
2023/12/18 07:11:13;;;;;;;52.03;27.47;;;7.90;92.70;;;;;;4980544;28;20189;-90
2023/12/18 07:13:38;;;;;;;44.57;25.90;;;7.80;92.70;;;;;;4980208;28;20205;-91
2023/12/18 07:16:05;;;;;;;52.37;27.07;;;7.80;92.80;;;;;;4980297;28;20186;-91
2023/12/18 07:18:31;;;;;;;49.87;29.30;;;7.80;92.80;;;;;;4980578;28;20171;-90
2023/12/18 07:20:56;;;;;;;47.67;26.13;;;7.80;92.90;;;;;;4982125;28;20329;-90
2023/12/18 07:23:22;;;;;;;51.40;28.83;;;7.80;92.80;;;;;;4980196;28;20181;-91
2023/12/18 07:25:47;;;;;;;47.87;27.27;;;7.80;92.90;;;;;;4979867;28;20611;-91
2023/12/18 07:28:13;;;;;;;48.37;28.13;;;7.80;92.90;;;;;;4981369;28;20237;-91
2023/12/18 07:30:39;;;;;;;67.17;31.17;;;7.80;92.90;;;;;;4979462;28;20579;-91
2023/12/18 07:33:05;;;;;;;46.73;22.43;;;7.80;92.90;;;;;;4979156;28;20568;-92
2023/12/18 07:35:31;;;;;;;63.23;25.80;;;7.80;93.00;;;;;;4979781;28;20185;-91
2023/12/18 07:37:57;;;;;;;56.50;29.27;;;7.80;93.00;;;;;;4996839;28;20193;-90
2023/12/18 07:40:22;;;;;;;43.47;27.07;;;7.80;92.90;;;;;;4979557;28;20190;-91
2023/12/18 07:42:48;;;;;;;55.27;30.37;;;7.80;92.90;;;;;;4979398;28;20178;-90
2023/12/18 07:45:14;;;;;;;42.40;25.43;;;7.80;92.90;;;;;;4979222;28;20178;-92
2023/12/18 07:47:41;;;;;;;49.37;20.43;;;7.80;92.90;;;;;;4979696;28;20650;-91
2023/12/18 07:50:07;;;;;;;53.27;31.37;;;7.80;93.00;;;;;;4979189;28;20205;-91
2023/12/18 07:52:33;;;;;;;59.43;29.33;;;7.80;93.00;;;;;;4979643;28;20229;-91
2023/12/18 07:54:59;;;;;;;47.13;28.53;;;7.80;93.00;;;;;;4979207;28;20638;-91
2023/12/18 07:57:24;;;;;;;53.60;27.57;;;7.80;93.00;;;;;;4979176;28;20174;-91
2023/12/18 07:59:50;;;;;;;43.20;25.37;;;7.80;93.00;;;;;;4979391;28;20205;-91
2023/12/18 08:02:16;;;;;;;55.23;26.53;;;7.80;93.10;;;;;;4978907;28;20185;-91
2023/12/18 08:04:41;;;;;;;50.67;28.43;;;7.80;93.10;;;;;;4979008;28;20177;-91
2023/12/18 08:07:07;;;;;;;52.03;24.93;;;7.80;93.20;;;;;;4979113;28;20665;-91
2023/12/18 08:09:32;;;;;;;49.13;23.93;;;7.80;93.20;;;;;;4979076;28;20194;-90
2023/12/18 08:11:58;;;;;;;54.13;28.50;;;7.80;93.20;;;;;;4979132;28;20181;-90
2023/12/18 08:14:24;;;;;;;54.40;26.97;;;7.80;93.10;;;;;;4978160;28;20273;-89
2023/12/18 08:16:50;;;;;;;64.17;28.83;;;7.80;93.10;;;;;;4996213;28;20559;-91
2023/12/18 08:19:17;;;;;;;54.97;28.10;;;7.80;93.10;;;;;;4978375;28;20697;-90
2023/12/18 08:21:44;;;;;;;53.37;27.87;;;7.80;93.10;;;;;;4978674;28;20174;-90
2023/12/18 08:24:09;;;;;;;56.37;29.83;;;7.80;93.20;;;;;;4978718;28;20284;-91
2023/12/18 08:26:35;;;;;;;59.37;28.00;;;7.80;93.20;;;;;;4978388;28;20240;-90
2023/12/18 08:29:01;;;;;;;61.97;29.10;;;7.80;93.20;;;;;;4978416;28;20205;-90
2023/12/18 08:31:27;;;;;;;61.93;30.30;;;7.80;93.20;;;;;;4978618;28;20241;-91
2023/12/18 08:33:52;;;;;;;67.93;28.03;;;7.80;93.20;;;;;;4978156;28;20236;-91
2023/12/18 08:36:18;;;;;;;61.80;28.80;;;7.80;93.30;;;;;;4978273;28;20178;-91
2023/12/18 08:38:44;;;;;;;55.10;28.20;;;7.80;93.30;;;;;;4977998;28;20201;-91
2023/12/18 08:41:09;;;;;;;67.20;32.97;;;7.80;93.30;;;;;;4978306;28;20238;-91
2023/12/18 08:43:35;;;;;;;59.23;32.00;;;7.80;93.40;;;;;;4978148;28;20276;-91
2023/12/18 08:46:01;;;;;;;65.07;31.53;;;7.70;93.40;;;;;;4978055;28;20189;-91
2023/12/18 08:48:26;;;;;;;64.53;32.73;;;7.80;93.40;;;;;;4978208;28;20285;-90
2023/12/18 08:50:51;;;;;;;63.40;31.77;;;7.80;93.50;;;;;;4978275;28;20261;-92
2023/12/18 08:53:17;;;;;;;56.50;31.70;;;7.80;93.40;;;;;;4978086;28;20258;-90
2023/12/18 08:55:43;;;;;;;69.17;34.63;;;7.80;93.40;;;;;;4978014;28;20246;-90
2023/12/18 08:58:08;;;;;;;58.70;33.70;;;7.80;93.50;;;;;;4977859;28;20269;-91
2023/12/18 09:00:34;;;;;;;62.60;30.70;;;7.80;93.50;;;;;;4977726;28;20197;-91
2023/12/18 09:03:00;;;;;;;63.53;32.50;;;7.80;93.40;;;;;;4977856;28;20185;-90
2023/12/18 09:05:25;;;;;;;58.03;32.93;;;7.80;93.40;;;;;;4977978;28;20318;-91
2023/12/18 09:07:51;;;;;;;53.27;30.67;;;7.80;93.40;;;;;;4977546;28;20665;-90
2023/12/18 09:10:22;;;;;;;50.60;30.47;;;7.80;93.40;;;;;;4977575;28;20217;-90
2023/12/18 09:12:48;;;;;;;50.20;28.27;;;7.80;93.40;;;;;;4977708;28;20284;-91
2023/12/18 09:15:14;;;;;;;63.43;33.87;;;7.80;93.40;;;;;;4977625;28;20178;-89
2023/12/18 09:17:41;;;;;;;61.20;32.60;;;7.80;93.40;;;;;;5007240;28;20281;-92
2023/12/18 09:20:07;;;;;;;58.60;31.43;;;7.80;93.50;;;;;;5003335;28;20202;-94
2023/12/18 09:22:33;;;;;;;64.70;30.60;;;7.80;93.50;;;;;;5003392;28;20174;-93
2023/12/18 09:24:58;;;;;;;61.83;32.83;;;7.80;93.40;;;;;;5003015;28;20159;-94
2023/12/18 09:27:24;;;;;;;59.50;28.93;;;7.80;93.40;;;;;;5003245;28;20158;-95
2023/12/18 09:29:50;;;;;;;56.43;25.83;;;7.80;93.30;;;;;;5003226;28;20266;-94
2023/12/18 09:32:15;;;;;;;62.43;33.37;;;7.80;93.40;;;;;;5003154;28;20158;-95
2023/12/18 09:34:41;;;;;;;53.30;32.53;;;7.80;93.40;;;;;;5003240;28;20169;-93
2023/12/18 09:37:06;;;;;;;71.50;31.97;;;7.80;93.30;;;;;;5002951;28;20193;-93
2023/12/18 09:39:32;;;;;;;56.87;31.87;;;7.90;93.30;;;;;;5002821;28;20190;-94
2023/12/18 09:42:02;;;;;;;63.87;31.40;;;7.90;93.20;;;;;;5003201;28;20150;-92
2023/12/18 09:44:30;;;;;;;57.77;31.57;;;7.90;93.20;;;;;;5003045;28;20158;-92
2023/12/18 09:46:58;;;;;;;65.20;32.20;;;7.90;93.20;;;;;;5002944;28;20162;-93
2023/12/18 09:49:23;;;;;;;60.13;32.20;;;7.90;93.30;;;;;;5002752;28;20258;-94
2023/12/18 09:51:52;;;;;;;56.37;28.17;;;7.90;93.20;;;;;;5002899;28;20154;-92
2023/12/18 09:54:19;;;;;;;61.27;30.40;;;7.90;93.20;;;;;;4994735;28;20206;-93
2023/12/18 09:56:47;;;;;;;60.77;29.87;;;7.90;93.20;;;;;;5001077;28;20234;-93
2023/12/18 09:59:14;;;;;;;51.83;28.70;;;7.90;93.20;;;;;;5000253;28;20192;-93
2023/12/18 10:01:40;;;;;;;57.13;29.63;;;7.90;93.20;;;;;;5001325;28;20159;-91
2023/12/18 10:04:06;;;;;;;42.53;24.20;;;7.90;93.20;;;;;;5002688;28;20197;-93
2023/12/18 10:06:31;;;;;;;58.23;28.10;;;7.90;93.30;;;;;;5002462;28;20241;-92
2023/12/18 10:08:57;;;;;;;59.57;29.83;;;7.90;93.30;;;;;;5002429;28;20202;-93
2023/12/18 10:11:27;;;;;;;63.73;26.43;;;7.90;93.30;;;;;;5002541;28;20154;-94
2023/12/18 10:13:56;;;;;;;60.13;29.03;;;7.90;93.40;;;;;;5002622;28;20190;-92
2023/12/18 10:16:22;;;;;;;53.83;27.20;;;7.90;93.40;;;;;;5002364;28;20181;-94
2023/12/18 10:18:48;;;;;;;51.73;30.20;;;8.00;93.30;;;;;;5002379;28;20190;-93
2023/12/18 10:21:20;;;;;;;52.80;28.30;;;7.90;93.30;;;;;;5002150;28;20169;-93
2023/12/18 10:23:45;;;;;;;60.27;29.40;;;8.00;93.30;;;;;;5001710;28;20225;-94
2023/12/18 10:26:11;;;;;;;58.33;29.70;;;8.00;93.30;;;;;;5001815;28;20173;-94
2023/12/18 10:28:36;;;;;;;55.17;26.33;;;8.00;93.30;;;;;;5002231;28;20178;-93
2023/12/18 10:31:04;;;;;;;69.67;29.90;;;8.00;93.30;;;;;;5002327;28;20186;-95
2023/12/18 10:33:29;;;;;;;58.20;27.97;;;8.00;93.40;;;;;;5001624;28;20214;-93
2023/12/18 10:35:57;;;;;;;44.97;27.27;;;8.00;93.40;;;;;;4993706;28;20181;-90
2023/12/18 10:38:29;;;;;;;58.47;28.40;;;8.00;93.40;;;;;;4980156;28;20341;-90
2023/12/18 10:40:57;;;;;;;57.97;31.10;;;8.00;93.40;;;;;;4981247;28;20205;-90
2023/12/18 10:43:27;;;;;;;41.77;24.63;;;8.00;93.30;;;;;;4988390;28;20249;-93
2023/12/18 10:46:39;;;;;;;52.87;27.80;;;8.00;93.30;;;;;;4998892;28;20197;-93
2023/12/18 10:49:06;;;;;;;45.87;24.93;;;7.90;93.30;;;;;;4993295;28;20201;-92
2023/12/18 10:51:34;;;;;;;55.77;31.03;;;8.00;93.30;;;;;;4984324;28;20154;-93
2023/12/18 10:54:01;;;;;;;61.83;29.83;;;8.00;93.30;;;;;;5005639;28;20202;-93
2023/12/18 10:56:29;;;;;;;46.37;29.20;;;8.00;93.30;;;;;;5004981;28;20166;-91
2023/12/18 10:58:57;;;;;;;46.03;28.20;;;8.00;93.30;;;;;;4997272;28;20202;-92
2023/12/18 11:01:24;;;;;;;41.97;21.90;;;8.00;93.20;;;;;;4991682;28;20601;-94
2023/12/18 11:03:51;;;;;;;52.00;29.77;;;8.00;93.30;;;;;;5016926;28;20182;-93
2023/12/18 11:06:18;;;;;;;48.50;27.67;;;8.00;93.30;;;;;;5005004;28;20178;-93
2023/12/18 11:08:44;;;;;;;60.17;30.73;;;8.00;93.30;;;;;;5005611;28;20150;-93
2023/12/18 11:11:12;;;;;;;55.27;31.37;;;8.00;93.40;;;;;;5005650;28;20173;-91
2023/12/18 11:14:05;;;;;;;59.00;31.50;;;8.00;93.40;;;;;;5005559;28;20198;-93
2023/12/18 11:16:49;;;;;;;67.70;33.30;;;7.90;93.50;;;;;;5005108;28;20167;-92
2023/12/18 11:19:36;;;;;;;63.83;30.83;;;8.00;93.60;;;;;;5004797;28;20297;-91
2023/12/18 11:22:04;;;;;;;49.03;28.60;;;8.00;93.60;;;;;;5002476;28;20190;-93
2023/12/18 11:24:37;;;;;;;53.03;30.70;;;7.90;93.60;;;;;;5001605;28;20174;-93
2023/12/18 11:27:07;;;;;;;49.40;29.47;;;8.00;93.50;;;;;;4991845;28;20161;-92
2023/12/18 11:29:39;;;;;;;45.63;25.70;;;8.00;93.50;;;;;;4986521;28;20205;-92
2023/12/18 11:32:06;;;;;;;47.70;25.80;;;8.00;93.50;;;;;;5003199;28;20179;-93
2023/12/18 11:34:31;;;;;;;50.63;27.53;;;8.00;93.60;;;;;;5001056;28;20242;-93
2023/12/18 11:36:58;;;;;;;57.50;28.60;;;8.00;93.60;;;;;;4997383;28;20194;-92
2023/12/18 11:39:40;;;;;;;58.60;32.20;;;8.00;93.60;;;;;;5004533;28;20188;-92
2023/12/18 11:42:07;;;;;;;56.50;31.10;;;8.00;93.50;;;;;;4991244;28;20175;-91
2023/12/18 11:44:37;;;;;;;40.60;23.53;;;8.00;93.50;;;;;;4995147;28;20188;-93
2023/12/18 11:47:02;;;;;;;49.30;26.53;;;8.00;93.50;;;;;;4994020;28;20186;-93
2023/12/18 11:49:30;;;;;;;56.73;29.93;;;8.00;93.40;;;;;;4994752;28;20229;-92
2023/12/18 11:51:58;;;;;;;53.07;29.20;;;8.00;93.50;;;;;;4989477;28;20185;-93
2023/12/18 11:54:25;;;;;;;54.20;26.30;;;8.00;93.50;;;;;;4997131;28;20206;-93
2023/12/18 11:56:51;;;;;;;51.03;26.80;;;8.00;93.50;;;;;;4998747;28;20180;-92
2023/12/18 11:59:18;;;;;;;52.87;27.33;;;8.00;93.50;;;;;;4998970;28;20197;-93
2023/12/18 12:01:46;;;;;;;50.30;27.97;;;8.00;93.40;;;;;;4997910;28;20184;-93
2023/12/18 12:04:14;;;;;;;54.70;27.83;;;8.00;93.40;;;;;;4997721;28;20182;-93
2023/12/18 12:06:42;;;;;;;60.73;32.17;;;8.00;93.40;;;;;;4992057;28;20246;-91
2023/12/18 12:09:08;;;;;;;55.70;29.83;;;8.00;93.50;;;;;;4995422;28;20197;-93
2023/12/18 12:11:37;;;;;;;54.53;30.80;;;8.00;93.50;;;;;;4994723;28;20191;-92
2023/12/18 12:14:03;;;;;;;55.47;34.60;;;8.00;93.50;;;;;;4989909;28;20527;-92
2023/12/18 12:16:29;;;;;;;48.47;28.17;;;8.00;93.50;;;;;;5005854;28;20174;-92
2023/12/18 12:18:55;;;;;;;49.03;29.23;;;8.00;93.50;;;;;;4986676;28;20250;-87
2023/12/18 12:21:21;;;;;;;54.30;26.77;;;8.00;93.50;;;;;;4980217;28;20266;-89
2023/12/18 12:23:49;;;;;;;58.93;28.83;;;8.00;93.50;;;;;;4996733;28;20202;-89
2023/12/18 12:26:17;;;;;;;41.83;23.77;;;8.10;93.50;;;;;;4978935;28;20178;-89
2023/12/18 12:28:42;;;;;;;59.67;29.33;;;8.10;93.40;;;;;;4979437;28;20186;-90
2023/12/18 12:31:08;;;;;;;55.00;28.40;;;8.00;93.40;;;;;;4978643;28;20178;-90